sensor_id;sensor_type;location;lat;lon;timestamp;temperature;humidity
69208;SHT31;56321;47.662;8.878;2023-04-21T00:00:24;6.09;77.60
69208;SHT31;56321;47.662;8.878;2023-04-21T00:02:50;6.14;77.47
69208;SHT31;56321;47.662;8.878;2023-04-21T00:05:15;6.20;77.45
69208;SHT31;56321;47.662;8.878;2023-04-21T00:07:41;6.23;77.50
69208;SHT31;56321;47.662;8.878;2023-04-21T00:10:10;6.25;77.34
69208;SHT31;56321;47.662;8.878;2023-04-21T00:12:36;6.27;77.34
69208;SHT31;56321;47.662;8.878;2023-04-21T00:15:03;6.31;77.42
69208;SHT31;56321;47.662;8.878;2023-04-21T00:17:28;6.31;77.28
69208;SHT31;56321;47.662;8.878;2023-04-21T00:19:54;6.33;77.43
69208;SHT31;56321;47.662;8.878;2023-04-21T00:22:19;6.33;77.48
69208;SHT31;56321;47.662;8.878;2023-04-21T00:24:45;6.35;77.64
69208;SHT31;56321;47.662;8.878;2023-04-21T00:27:10;6.41;77.66
69208;SHT31;56321;47.662;8.878;2023-04-21T00:29:36;6.41;77.59
69208;SHT31;56321;47.662;8.878;2023-04-21T00:32:03;6.42;77.60
69208;SHT31;56321;47.662;8.878;2023-04-21T00:34:32;6.48;77.72
69208;SHT31;56321;47.662;8.878;2023-04-21T00:36:57;6.51;77.76
69208;SHT31;56321;47.662;8.878;2023-04-21T00:39:23;6.54;77.77
69208;SHT31;56321;47.662;8.878;2023-04-21T00:41:48;6.56;77.91
69208;SHT31;56321;47.662;8.878;2023-04-21T00:44:13;6.62;77.98
69208;SHT31;56321;47.662;8.878;2023-04-21T00:46:39;6.65;77.85
69208;SHT31;56321;47.662;8.878;2023-04-21T00:49:06;6.64;77.62
69208;SHT31;56321;47.662;8.878;2023-04-21T00:51:33;6.62;77.51
69208;SHT31;56321;47.662;8.878;2023-04-21T00:53:59;6.56;77.37
69208;SHT31;56321;47.662;8.878;2023-04-21T00:56:25;6.51;77.47
69208;SHT31;56321;47.662;8.878;2023-04-21T00:58:52;6.46;77.49
69208;SHT31;56321;47.662;8.878;2023-04-21T01:01:18;6.41;77.57
69208;SHT31;56321;47.662;8.878;2023-04-21T01:03:43;6.40;77.57
69208;SHT31;56321;47.662;8.878;2023-04-21T01:06:11;6.38;77.64
69208;SHT31;56321;47.662;8.878;2023-04-21T01:08:37;6.35;77.69
69208;SHT31;56321;47.662;8.878;2023-04-21T01:11:12;6.35;77.72
69208;SHT31;56321;47.662;8.878;2023-04-21T01:13:38;6.28;77.65
69208;SHT31;56321;47.662;8.878;2023-04-21T01:16:04;6.31;77.69
69208;SHT31;56321;47.662;8.878;2023-04-21T01:18:30;6.31;77.56
69208;SHT31;56321;47.662;8.878;2023-04-21T01:20:55;6.28;77.61
69208;SHT31;56321;47.662;8.878;2023-04-21T01:23:22;6.28;77.61
69208;SHT31;56321;47.662;8.878;2023-04-21T01:25:49;6.28;77.46
69208;SHT31;56321;47.662;8.878;2023-04-21T01:28:20;6.24;77.45
69208;SHT31;56321;47.662;8.878;2023-04-21T01:30:46;6.25;77.58
69208;SHT31;56321;47.662;8.878;2023-04-21T01:33:11;6.20;77.57
69208;SHT31;56321;47.662;8.878;2023-04-21T01:35:36;6.20;77.65
69208;SHT31;56321;47.662;8.878;2023-04-21T01:38:02;6.18;77.75
69208;SHT31;56321;47.662;8.878;2023-04-21T01:40:27;6.18;77.94
69208;SHT31;56321;47.662;8.878;2023-04-21T01:42:52;6.21;77.90
69208;SHT31;56321;47.662;8.878;2023-04-21T01:45:18;6.25;77.81
69208;SHT31;56321;47.662;8.878;2023-04-21T01:47:43;6.27;77.94
69208;SHT31;56321;47.662;8.878;2023-04-21T01:50:09;6.30;77.90
69208;SHT31;56321;47.662;8.878;2023-04-21T01:52:34;6.35;77.79
69208;SHT31;56321;47.662;8.878;2023-04-21T01:55:00;6.33;77.68
69208;SHT31;56321;47.662;8.878;2023-04-21T01:57:25;6.38;77.68
69208;SHT31;56321;47.662;8.878;2023-04-21T01:59:51;6.38;77.78
69208;SHT31;56321;47.662;8.878;2023-04-21T02:02:16;6.38;77.84
69208;SHT31;56321;47.662;8.878;2023-04-21T02:04:41;6.41;77.88
69208;SHT31;56321;47.662;8.878;2023-04-21T02:07:07;6.46;77.91
69208;SHT31;56321;47.662;8.878;2023-04-21T02:09:32;6.48;77.89
69208;SHT31;56321;47.662;8.878;2023-04-21T02:11:57;6.46;77.86
69208;SHT31;56321;47.662;8.878;2023-04-21T02:14:24;6.51;77.79
69208;SHT31;56321;47.662;8.878;2023-04-21T02:16:50;6.56;77.81
69208;SHT31;56321;47.662;8.878;2023-04-21T02:19:15;6.54;77.86
69208;SHT31;56321;47.662;8.878;2023-04-21T02:21:40;6.54;77.82
69208;SHT31;56321;47.662;8.878;2023-04-21T02:24:06;6.51;77.71
69208;SHT31;56321;47.662;8.878;2023-04-21T02:26:31;6.54;77.65
69208;SHT31;56321;47.662;8.878;2023-04-21T02:28:56;6.54;77.82
69208;SHT31;56321;47.662;8.878;2023-04-21T02:31:21;6.52;77.87
69208;SHT31;56321;47.662;8.878;2023-04-21T02:33:47;6.54;77.81
69208;SHT31;56321;47.662;8.878;2023-04-21T02:36:12;6.52;77.72
69208;SHT31;56321;47.662;8.878;2023-04-21T02:38:37;6.52;77.84
69208;SHT31;56321;47.662;8.878;2023-04-21T02:41:03;6.54;77.90
69208;SHT31;56321;47.662;8.878;2023-04-21T02:43:28;6.56;78.10
69208;SHT31;56321;47.662;8.878;2023-04-21T02:45:53;6.58;78.10
69208;SHT31;56321;47.662;8.878;2023-04-21T02:48:19;6.59;78.09
69208;SHT31;56321;47.662;8.878;2023-04-21T02:50:48;6.62;78.22
69208;SHT31;56321;47.662;8.878;2023-04-21T02:53:13;6.65;78.12
69208;SHT31;56321;47.662;8.878;2023-04-21T02:55:39;6.68;78.20
69208;SHT31;56321;47.662;8.878;2023-04-21T02:58:04;6.68;78.21
69208;SHT31;56321;47.662;8.878;2023-04-21T03:00:30;6.72;78.19
69208;SHT31;56321;47.662;8.878;2023-04-21T03:02:55;6.72;78.27
69208;SHT31;56321;47.662;8.878;2023-04-21T03:05:20;6.71;78.38
69208;SHT31;56321;47.662;8.878;2023-04-21T03:07:46;6.76;78.28
69208;SHT31;56321;47.662;8.878;2023-04-21T03:10:11;6.76;78.11
69208;SHT31;56321;47.662;8.878;2023-04-21T03:12:36;6.75;78.22
69208;SHT31;56321;47.662;8.878;2023-04-21T03:15:02;6.73;78.27
69208;SHT31;56321;47.662;8.878;2023-04-21T03:17:28;6.75;78.38
69208;SHT31;56321;47.662;8.878;2023-04-21T03:19:53;6.79;78.44
69208;SHT31;56321;47.662;8.878;2023-04-21T03:22:18;6.81;78.49
69208;SHT31;56321;47.662;8.878;2023-04-21T03:24:43;6.85;78.45
69208;SHT31;56321;47.662;8.878;2023-04-21T03:27:09;6.83;78.52
69208;SHT31;56321;47.662;8.878;2023-04-21T03:29:34;6.85;78.52
69208;SHT31;56321;47.662;8.878;2023-04-21T03:32:00;6.89;78.51
69208;SHT31;56321;47.662;8.878;2023-04-21T03:34:26;6.90;78.46
69208;SHT31;56321;47.662;8.878;2023-04-21T03:36:51;6.92;78.59
69208;SHT31;56321;47.662;8.878;2023-04-21T03:39:16;6.93;78.50
69208;SHT31;56321;47.662;8.878;2023-04-21T03:41:41;6.92;78.45
69208;SHT31;56321;47.662;8.878;2023-04-21T03:44:07;6.90;78.30
69208;SHT31;56321;47.662;8.878;2023-04-21T03:46:32;6.92;78.42
69208;SHT31;56321;47.662;8.878;2023-04-21T03:48:57;6.95;78.51
69208;SHT31;56321;47.662;8.878;2023-04-21T03:51:23;6.93;78.57
69208;SHT31;56321;47.662;8.878;2023-04-21T03:53:48;6.96;78.46
69208;SHT31;56321;47.662;8.878;2023-04-21T03:56:13;6.96;78.42
69208;SHT31;56321;47.662;8.878;2023-04-21T03:58:38;6.97;78.45
69208;SHT31;56321;47.662;8.878;2023-04-21T04:01:04;6.96;78.59
69208;SHT31;56321;47.662;8.878;2023-04-21T04:03:30;6.97;78.46
69208;SHT31;56321;47.662;8.878;2023-04-21T04:05:56;6.96;78.34
69208;SHT31;56321;47.662;8.878;2023-04-21T04:08:21;6.96;78.34
69208;SHT31;56321;47.662;8.878;2023-04-21T04:10:46;6.96;78.32
69208;SHT31;56321;47.662;8.878;2023-04-21T04:13:12;6.95;78.30
69208;SHT31;56321;47.662;8.878;2023-04-21T04:15:37;6.96;78.37
69208;SHT31;56321;47.662;8.878;2023-04-21T04:18:02;6.96;78.49
69208;SHT31;56321;47.662;8.878;2023-04-21T04:20:28;7.00;78.38
69208;SHT31;56321;47.662;8.878;2023-04-21T04:22:53;6.99;78.32
69208;SHT31;56321;47.662;8.878;2023-04-21T04:25:18;7.02;78.38
69208;SHT31;56321;47.662;8.878;2023-04-21T04:27:44;7.02;78.23
69208;SHT31;56321;47.662;8.878;2023-04-21T04:30:11;7.00;78.11
69208;SHT31;56321;47.662;8.878;2023-04-21T04:32:37;6.97;78.06
69208;SHT31;56321;47.662;8.878;2023-04-21T04:35:07;6.95;78.17
69208;SHT31;56321;47.662;8.878;2023-04-21T04:37:35;6.95;78.25
69208;SHT31;56321;47.662;8.878;2023-04-21T04:40:01;6.95;78.20
69208;SHT31;56321;47.662;8.878;2023-04-21T04:42:26;6.93;78.33
69208;SHT31;56321;47.662;8.878;2023-04-21T04:44:54;6.92;78.44
69208;SHT31;56321;47.662;8.878;2023-04-21T04:47:21;6.92;78.45
69208;SHT31;56321;47.662;8.878;2023-04-21T04:49:46;6.96;78.50
69208;SHT31;56321;47.662;8.878;2023-04-21T04:52:12;6.97;78.53
69208;SHT31;56321;47.662;8.878;2023-04-21T04:54:37;6.99;78.41
69208;SHT31;56321;47.662;8.878;2023-04-21T04:57:03;7.00;78.40
69208;SHT31;56321;47.662;8.878;2023-04-21T04:59:28;7.02;78.35
69208;SHT31;56321;47.662;8.878;2023-04-21T05:01:55;7.00;78.41
69208;SHT31;56321;47.662;8.878;2023-04-21T05:04:20;7.02;78.56
69208;SHT31;56321;47.662;8.878;2023-04-21T05:06:45;7.06;78.45
69208;SHT31;56321;47.662;8.878;2023-04-21T05:09:11;7.06;78.53
69208;SHT31;56321;47.662;8.878;2023-04-21T05:11:36;7.07;78.42
69208;SHT31;56321;47.662;8.878;2023-04-21T05:14:02;7.10;78.31
69208;SHT31;56321;47.662;8.878;2023-04-21T05:16:27;7.07;78.33
69208;SHT31;56321;47.662;8.878;2023-04-21T05:18:52;7.09;78.39
69208;SHT31;56321;47.662;8.878;2023-04-21T05:21:24;7.10;78.42
69208;SHT31;56321;47.662;8.878;2023-04-21T05:23:57;7.10;78.43
69208;SHT31;56321;47.662;8.878;2023-04-21T05:26:24;7.14;78.45
69208;SHT31;56321;47.662;8.878;2023-04-21T05:28:49;7.13;78.57
69208;SHT31;56321;47.662;8.878;2023-04-21T05:31:15;7.17;78.60
69208;SHT31;56321;47.662;8.878;2023-04-21T05:33:40;7.20;78.56
69208;SHT31;56321;47.662;8.878;2023-04-21T05:36:06;7.24;78.68
69208;SHT31;56321;47.662;8.878;2023-04-21T05:38:33;7.28;78.52
69208;SHT31;56321;47.662;8.878;2023-04-21T05:40:58;7.32;78.46
69208;SHT31;56321;47.662;8.878;2023-04-21T05:43:24;7.38;78.77
69208;SHT31;56321;47.662;8.878;2023-04-21T05:45:49;7.46;78.64
69208;SHT31;56321;47.662;8.878;2023-04-21T05:48:14;7.51;78.23
69208;SHT31;56321;47.662;8.878;2023-04-21T05:50:40;7.52;78.25
69208;SHT31;56321;47.662;8.878;2023-04-21T05:53:05;7.58;78.06
69208;SHT31;56321;47.662;8.878;2023-04-21T05:55:33;7.64;77.99
69208;SHT31;56321;47.662;8.878;2023-04-21T05:57:58;7.64;77.94
69208;SHT31;56321;47.662;8.878;2023-04-21T06:00:24;7.71;77.93
69208;SHT31;56321;47.662;8.878;2023-04-21T06:02:49;7.75;78.02
69208;SHT31;56321;47.662;8.878;2023-04-21T06:05:14;7.78;77.78
69208;SHT31;56321;47.662;8.878;2023-04-21T06:07:40;7.79;77.27
69208;SHT31;56321;47.662;8.878;2023-04-21T06:10:06;7.83;77.45
69208;SHT31;56321;47.662;8.878;2023-04-21T06:12:31;7.81;77.22
69208;SHT31;56321;47.662;8.878;2023-04-21T06:14:56;7.82;77.35
69208;SHT31;56321;47.662;8.878;2023-04-21T06:17:22;7.83;77.53
69208;SHT31;56321;47.662;8.878;2023-04-21T06:19:48;7.85;77.41
69208;SHT31;56321;47.662;8.878;2023-04-21T06:22:20;7.92;77.29
69208;SHT31;56321;47.662;8.878;2023-04-21T06:24:45;7.93;77.36
69208;SHT31;56321;47.662;8.878;2023-04-21T06:27:11;7.97;77.49
69208;SHT31;56321;47.662;8.878;2023-04-21T06:29:37;8.06;77.48
69208;SHT31;56321;47.662;8.878;2023-04-21T06:32:02;8.13;77.61
69208;SHT31;56321;47.662;8.878;2023-04-21T06:34:28;8.20;77.29
69208;SHT31;56321;47.662;8.878;2023-04-21T06:36:53;8.24;77.39
69208;SHT31;56321;47.662;8.878;2023-04-21T06:39:19;8.30;77.16
69208;SHT31;56321;47.662;8.878;2023-04-21T06:41:44;8.38;77.14
69208;SHT31;56321;47.662;8.878;2023-04-21T06:44:09;8.44;77.09
69208;SHT31;56321;47.662;8.878;2023-04-21T06:46:40;8.53;77.35
69208;SHT31;56321;47.662;8.878;2023-04-21T06:49:06;8.61;77.30
69208;SHT31;56321;47.662;8.878;2023-04-21T06:51:32;8.68;76.92
69208;SHT31;56321;47.662;8.878;2023-04-21T06:53:57;8.75;76.86
69208;SHT31;56321;47.662;8.878;2023-04-21T06:56:22;8.75;76.61
69208;SHT31;56321;47.662;8.878;2023-04-21T06:58:48;8.75;76.51
69208;SHT31;56321;47.662;8.878;2023-04-21T07:01:13;8.78;76.68
69208;SHT31;56321;47.662;8.878;2023-04-21T07:03:38;8.82;76.81
69208;SHT31;56321;47.662;8.878;2023-04-21T07:06:04;8.88;76.66
69208;SHT31;56321;47.662;8.878;2023-04-21T07:08:29;8.98;76.49
69208;SHT31;56321;47.662;8.878;2023-04-21T07:10:55;9.08;76.57
69208;SHT31;56321;47.662;8.878;2023-04-21T07:13:20;9.20;76.13
69208;SHT31;56321;47.662;8.878;2023-04-21T07:15:45;9.27;75.69
69208;SHT31;56321;47.662;8.878;2023-04-21T07:18:10;9.36;75.77
69208;SHT31;56321;47.662;8.878;2023-04-21T07:20:36;9.46;75.66
69208;SHT31;56321;47.662;8.878;2023-04-21T07:23:01;9.52;75.27
69208;SHT31;56321;47.662;8.878;2023-04-21T07:25:26;9.55;75.05
69208;SHT31;56321;47.662;8.878;2023-04-21T07:27:52;9.54;75.09
69208;SHT31;56321;47.662;8.878;2023-04-21T07:30:17;9.57;74.84
69208;SHT31;56321;47.662;8.878;2023-04-21T07:32:43;9.58;75.06
69208;SHT31;56321;47.662;8.878;2023-04-21T07:35:08;9.54;74.80
69208;SHT31;56321;47.662;8.878;2023-04-21T07:37:33;9.55;75.32
69208;SHT31;56321;47.662;8.878;2023-04-21T07:39:59;9.57;75.02
69208;SHT31;56321;47.662;8.878;2023-04-21T07:42:24;9.60;75.14
69208;SHT31;56321;47.662;8.878;2023-04-21T07:44:51;9.64;74.67
69208;SHT31;56321;47.662;8.878;2023-04-21T07:47:17;9.62;74.36
69208;SHT31;56321;47.662;8.878;2023-04-21T07:49:42;9.64;74.82
69208;SHT31;56321;47.662;8.878;2023-04-21T07:52:07;9.65;74.51
69208;SHT31;56321;47.662;8.878;2023-04-21T07:54:33;9.70;74.68
69208;SHT31;56321;47.662;8.878;2023-04-21T07:56:58;9.68;74.38
69208;SHT31;56321;47.662;8.878;2023-04-21T07:59:24;9.67;74.54
69208;SHT31;56321;47.662;8.878;2023-04-21T08:01:49;9.70;74.72
69208;SHT31;56321;47.662;8.878;2023-04-21T08:04:16;9.74;74.85
69208;SHT31;56321;47.662;8.878;2023-04-21T08:06:41;9.79;74.18
69208;SHT31;56321;47.662;8.878;2023-04-21T08:09:06;9.81;74.04
69208;SHT31;56321;47.662;8.878;2023-04-21T08:11:32;9.81;74.18
69208;SHT31;56321;47.662;8.878;2023-04-21T08:13:57;9.84;74.25
69208;SHT31;56321;47.662;8.878;2023-04-21T08:16:22;9.85;74.38
69208;SHT31;56321;47.662;8.878;2023-04-21T08:18:48;9.88;74.39
69208;SHT31;56321;47.662;8.878;2023-04-21T08:21:13;9.89;74.15
69208;SHT31;56321;47.662;8.878;2023-04-21T08:23:39;9.92;73.93
69208;SHT31;56321;47.662;8.878;2023-04-21T08:26:04;9.95;73.54
69208;SHT31;56321;47.662;8.878;2023-04-21T08:28:29;9.99;73.50
69208;SHT31;56321;47.662;8.878;2023-04-21T08:30:55;10.02;73.18
69208;SHT31;56321;47.662;8.878;2023-04-21T08:33:20;10.03;73.27
69208;SHT31;56321;47.662;8.878;2023-04-21T08:35:46;10.08;73.39
69208;SHT31;56321;47.662;8.878;2023-04-21T08:38:11;10.19;73.56
69208;SHT31;56321;47.662;8.878;2023-04-21T08:40:37;10.33;73.29
69208;SHT31;56321;47.662;8.878;2023-04-21T08:43:04;10.49;73.08
69208;SHT31;56321;47.662;8.878;2023-04-21T08:45:30;10.71;72.67
69208;SHT31;56321;47.662;8.878;2023-04-21T08:47:58;10.87;72.21
69208;SHT31;56321;47.662;8.878;2023-04-21T08:50:26;11.01;71.85
69208;SHT31;56321;47.662;8.878;2023-04-21T08:52:55;11.12;71.78
69208;SHT31;56321;47.662;8.878;2023-04-21T08:55:29;11.14;71.94
69208;SHT31;56321;47.662;8.878;2023-04-21T08:57:54;11.26;71.55
69208;SHT31;56321;47.662;8.878;2023-04-21T09:00:20;11.38;71.79
69208;SHT31;56321;47.662;8.878;2023-04-21T09:02:53;11.46;71.07
69208;SHT31;56321;47.662;8.878;2023-04-21T09:05:24;11.58;71.22
69208;SHT31;56321;47.662;8.878;2023-04-21T09:07:50;11.69;71.06
69208;SHT31;56321;47.662;8.878;2023-04-21T09:10:21;11.81;70.67
69208;SHT31;56321;47.662;8.878;2023-04-21T09:12:50;11.98;71.13
69208;SHT31;56321;47.662;8.878;2023-04-21T09:15:15;12.24;70.10
69208;SHT31;56321;47.662;8.878;2023-04-21T09:17:43;12.49;69.52
69208;SHT31;56321;47.662;8.878;2023-04-21T09:20:16;12.77;69.11
69208;SHT31;56321;47.662;8.878;2023-04-21T09:22:41;13.07;69.38
69208;SHT31;56321;47.662;8.878;2023-04-21T09:25:07;13.32;69.07
69208;SHT31;56321;47.662;8.878;2023-04-21T09:27:35;13.55;67.77
69208;SHT31;56321;47.662;8.878;2023-04-21T09:30:03;13.75;67.44
69208;SHT31;56321;47.662;8.878;2023-04-21T09:32:35;13.91;66.70
69208;SHT31;56321;47.662;8.878;2023-04-21T09:35:01;13.99;67.15
69208;SHT31;56321;47.662;8.878;2023-04-21T09:37:31;14.06;67.05
69208;SHT31;56321;47.662;8.878;2023-04-21T09:39:58;14.10;67.14
69208;SHT31;56321;47.662;8.878;2023-04-21T09:42:28;14.20;66.85
69208;SHT31;56321;47.662;8.878;2023-04-21T09:44:54;14.24;66.24
69208;SHT31;56321;47.662;8.878;2023-04-21T09:47:19;14.33;66.27
69208;SHT31;56321;47.662;8.878;2023-04-21T09:49:50;14.47;64.97
69208;SHT31;56321;47.662;8.878;2023-04-21T09:52:16;14.58;64.90
69208;SHT31;56321;47.662;8.878;2023-04-21T09:54:49;14.71;64.73
69208;SHT31;56321;47.662;8.878;2023-04-21T09:57:19;14.88;64.59
69208;SHT31;56321;47.662;8.878;2023-04-21T09:59:46;15.02;64.56
69208;SHT31;56321;47.662;8.878;2023-04-21T10:02:15;15.13;63.43
69208;SHT31;56321;47.662;8.878;2023-04-21T10:04:43;15.26;63.10
69208;SHT31;56321;47.662;8.878;2023-04-21T10:07:08;15.37;63.21
69208;SHT31;56321;47.662;8.878;2023-04-21T10:09:42;15.51;62.39
69208;SHT31;56321;47.662;8.878;2023-04-21T10:12:09;15.62;61.63
69208;SHT31;56321;47.662;8.878;2023-04-21T10:14:35;15.79;61.92
69208;SHT31;56321;47.662;8.878;2023-04-21T10:17:21;15.99;60.48
69208;SHT31;56321;47.662;8.878;2023-04-21T10:19:52;16.20;61.93
69208;SHT31;56321;47.662;8.878;2023-04-21T10:22:32;16.37;60.41
69208;SHT31;56321;47.662;8.878;2023-04-21T10:25:00;16.52;60.27
69208;SHT31;56321;47.662;8.878;2023-04-21T10:27:41;16.60;60.51
69208;SHT31;56321;47.662;8.878;2023-04-21T10:30:23;16.74;57.23
69208;SHT31;56321;47.662;8.878;2023-04-21T10:33:04;16.92;58.60
69208;SHT31;56321;47.662;8.878;2023-04-21T10:35:58;17.16;58.97
69208;SHT31;56321;47.662;8.878;2023-04-21T10:38:39;17.39;57.46
69208;SHT31;56321;47.662;8.878;2023-04-21T10:41:31;17.53;56.27
69208;SHT31;56321;47.662;8.878;2023-04-21T10:44:00;17.70;58.21
69208;SHT31;56321;47.662;8.878;2023-04-21T10:46:39;17.94;55.50
69208;SHT31;56321;47.662;8.878;2023-04-21T10:49:07;18.11;57.17
69208;SHT31;56321;47.662;8.878;2023-04-21T10:54:28;18.36;56.27
69208;SHT31;56321;47.662;8.878;2023-04-21T10:56:55;18.56;56.30
69208;SHT31;56321;47.662;8.878;2023-04-21T10:59:21;18.66;54.94
69208;SHT31;56321;47.662;8.878;2023-04-21T11:01:46;18.73;54.95
69208;SHT31;56321;47.662;8.878;2023-04-21T11:04:18;18.82;54.35
69208;SHT31;56321;47.662;8.878;2023-04-21T11:09:29;19.28;53.69
69208;SHT31;56321;47.662;8.878;2023-04-21T11:11:58;19.50;52.62
69208;SHT31;56321;47.662;8.878;2023-04-21T11:14:24;19.61;53.03
69208;SHT31;56321;47.662;8.878;2023-04-21T11:16:49;19.73;53.43
69208;SHT31;56321;47.662;8.878;2023-04-21T11:19:15;19.82;51.93
69208;SHT31;56321;47.662;8.878;2023-04-21T11:21:40;19.83;52.51
69208;SHT31;56321;47.662;8.878;2023-04-21T11:24:07;19.99;52.23
69208;SHT31;56321;47.662;8.878;2023-04-21T11:26:34;20.16;52.23
69208;SHT31;56321;47.662;8.878;2023-04-21T11:29:06;20.13;50.70
69208;SHT31;56321;47.662;8.878;2023-04-21T11:31:32;20.03;51.91
69208;SHT31;56321;47.662;8.878;2023-04-21T11:33:59;20.05;51.44
69208;SHT31;56321;47.662;8.878;2023-04-21T11:36:25;20.14;51.79
69208;SHT31;56321;47.662;8.878;2023-04-21T11:38:51;20.27;51.24
69208;SHT31;56321;47.662;8.878;2023-04-21T11:41:21;20.33;50.31
69208;SHT31;56321;47.662;8.878;2023-04-21T11:43:50;20.43;51.10
69208;SHT31;56321;47.662;8.878;2023-04-21T11:46:21;20.49;51.47
69208;SHT31;56321;47.662;8.878;2023-04-21T11:48:57;20.63;49.65
69208;SHT31;56321;47.662;8.878;2023-04-21T11:51:22;20.63;50.91
69208;SHT31;56321;47.662;8.878;2023-04-21T11:53:48;20.57;50.64
69208;SHT31;56321;47.662;8.878;2023-04-21T11:56:17;20.55;51.62
69208;SHT31;56321;47.662;8.878;2023-04-21T11:58:48;20.63;51.61
69208;SHT31;56321;47.662;8.878;2023-04-21T12:01:18;20.69;51.38
69208;SHT31;56321;47.662;8.878;2023-04-21T12:03:52;20.71;48.89
69208;SHT31;56321;47.662;8.878;2023-04-21T12:06:25;20.71;49.85
69208;SHT31;56321;47.662;8.878;2023-04-21T12:08:55;20.82;50.85
69208;SHT31;56321;47.662;8.878;2023-04-21T12:11:22;20.86;49.79
69208;SHT31;56321;47.662;8.878;2023-04-21T12:13:48;20.92;49.94
69208;SHT31;56321;47.662;8.878;2023-04-21T12:16:13;21.02;49.53
69208;SHT31;56321;47.662;8.878;2023-04-21T12:18:39;21.04;49.43
69208;SHT31;56321;47.662;8.878;2023-04-21T12:21:04;20.95;48.61
69208;SHT31;56321;47.662;8.878;2023-04-21T12:23:30;20.78;49.57
69208;SHT31;56321;47.662;8.878;2023-04-21T12:25:56;20.61;48.95
69208;SHT31;56321;47.662;8.878;2023-04-21T12:28:21;20.40;49.26
69208;SHT31;56321;47.662;8.878;2023-04-21T12:30:47;20.23;50.21
69208;SHT31;56321;47.662;8.878;2023-04-21T12:33:12;20.13;49.86
69208;SHT31;56321;47.662;8.878;2023-04-21T12:35:37;20.01;49.52
69208;SHT31;56321;47.662;8.878;2023-04-21T12:38:03;19.85;50.08
69208;SHT31;56321;47.662;8.878;2023-04-21T12:40:28;19.72;50.16
69208;SHT31;56321;47.662;8.878;2023-04-21T12:42:54;19.52;49.98
69208;SHT31;56321;47.662;8.878;2023-04-21T12:45:19;19.34;50.54
69208;SHT31;56321;47.662;8.878;2023-04-21T12:47:44;19.21;50.90
69208;SHT31;56321;47.662;8.878;2023-04-21T12:50:10;19.08;51.62
69208;SHT31;56321;47.662;8.878;2023-04-21T12:52:35;19.00;52.80
69208;SHT31;56321;47.662;8.878;2023-04-21T12:55:01;18.90;53.49
69208;SHT31;56321;47.662;8.878;2023-04-21T12:57:26;18.86;54.57
69208;SHT31;56321;47.662;8.878;2023-04-21T12:59:51;18.87;54.92
69208;SHT31;56321;47.662;8.878;2023-04-21T13:02:17;18.87;54.69
69208;SHT31;56321;47.662;8.878;2023-04-21T13:04:42;18.80;54.63
69208;SHT31;56321;47.662;8.878;2023-04-21T13:07:08;18.70;54.44
69208;SHT31;56321;47.662;8.878;2023-04-21T13:09:33;18.57;54.84
69208;SHT31;56321;47.662;8.878;2023-04-21T13:11:59;18.41;54.89
69208;SHT31;56321;47.662;8.878;2023-04-21T13:14:25;18.28;55.09
69208;SHT31;56321;47.662;8.878;2023-04-21T13:16:51;18.17;56.12
69208;SHT31;56321;47.662;8.878;2023-04-21T13:19:17;18.07;55.85
69208;SHT31;56321;47.662;8.878;2023-04-21T13:21:42;17.96;55.75
69208;SHT31;56321;47.662;8.878;2023-04-21T13:24:07;17.80;55.70
69208;SHT31;56321;47.662;8.878;2023-04-21T13:26:33;17.69;56.10
69208;SHT31;56321;47.662;8.878;2023-04-21T13:29:00;17.56;56.31
69208;SHT31;56321;47.662;8.878;2023-04-21T13:31:25;17.50;56.48
69208;SHT31;56321;47.662;8.878;2023-04-21T13:33:50;17.38;57.09
69208;SHT31;56321;47.662;8.878;2023-04-21T13:36:16;17.32;57.55
69208;SHT31;56321;47.662;8.878;2023-04-21T13:38:41;17.19;57.57
69208;SHT31;56321;47.662;8.878;2023-04-21T13:41:07;17.08;57.78
69208;SHT31;56321;47.662;8.878;2023-04-21T13:43:32;17.02;58.30
69208;SHT31;56321;47.662;8.878;2023-04-21T13:45:57;17.00;58.50
69208;SHT31;56321;47.662;8.878;2023-04-21T13:48:23;16.98;58.55
69208;SHT31;56321;47.662;8.878;2023-04-21T13:50:48;16.98;58.63
69208;SHT31;56321;47.662;8.878;2023-04-21T13:53:13;17.01;58.45
69208;SHT31;56321;47.662;8.878;2023-04-21T13:55:41;17.02;58.62
69208;SHT31;56321;47.662;8.878;2023-04-21T13:58:07;17.10;58.61
69208;SHT31;56321;47.662;8.878;2023-04-21T14:00:33;17.14;58.79
69208;SHT31;56321;47.662;8.878;2023-04-21T14:02:58;17.25;58.35
69208;SHT31;56321;47.662;8.878;2023-04-21T14:05:23;17.32;58.49
69208;SHT31;56321;47.662;8.878;2023-04-21T14:07:49;17.35;58.29
69208;SHT31;56321;47.662;8.878;2023-04-21T14:10:14;17.36;58.05
69208;SHT31;56321;47.662;8.878;2023-04-21T14:12:39;17.35;58.06
69208;SHT31;56321;47.662;8.878;2023-04-21T14:15:06;17.38;58.36
69208;SHT31;56321;47.662;8.878;2023-04-21T14:17:32;17.40;58.85
69208;SHT31;56321;47.662;8.878;2023-04-21T14:19:58;17.43;58.73
69208;SHT31;56321;47.662;8.878;2023-04-21T14:22:23;17.47;58.94
69208;SHT31;56321;47.662;8.878;2023-04-21T14:24:48;17.49;58.49
69208;SHT31;56321;47.662;8.878;2023-04-21T14:27:14;17.47;58.47
69208;SHT31;56321;47.662;8.878;2023-04-21T14:29:40;17.47;58.61
69208;SHT31;56321;47.662;8.878;2023-04-21T14:32:05;17.49;58.77
69208;SHT31;56321;47.662;8.878;2023-04-21T14:34:30;17.50;57.91
69208;SHT31;56321;47.662;8.878;2023-04-21T14:36:56;17.46;58.12
69208;SHT31;56321;47.662;8.878;2023-04-21T14:39:21;17.46;58.13
69208;SHT31;56321;47.662;8.878;2023-04-21T14:41:47;17.47;58.21
69208;SHT31;56321;47.662;8.878;2023-04-21T14:44:12;17.47;58.02
69208;SHT31;56321;47.662;8.878;2023-04-21T14:46:37;17.50;58.47
69208;SHT31;56321;47.662;8.878;2023-04-21T14:49:03;17.49;57.83
69208;SHT31;56321;47.662;8.878;2023-04-21T14:51:28;17.49;57.63
69208;SHT31;56321;47.662;8.878;2023-04-21T14:53:56;17.46;57.93
69208;SHT31;56321;47.662;8.878;2023-04-21T14:56:21;17.42;57.79
69208;SHT31;56321;47.662;8.878;2023-04-21T14:58:46;17.43;58.69
69208;SHT31;56321;47.662;8.878;2023-04-21T15:01:12;17.39;57.83
69208;SHT31;56321;47.662;8.878;2023-04-21T15:03:38;17.39;57.88
69208;SHT31;56321;47.662;8.878;2023-04-21T15:06:03;17.36;58.41
69208;SHT31;56321;47.662;8.878;2023-04-21T15:08:28;17.32;58.67
69208;SHT31;56321;47.662;8.878;2023-04-21T15:10:55;17.32;58.64
69208;SHT31;56321;47.662;8.878;2023-04-21T15:13:21;17.33;58.87
69208;SHT31;56321;47.662;8.878;2023-04-21T15:15:46;17.38;58.87
69208;SHT31;56321;47.662;8.878;2023-04-21T15:18:11;17.38;59.11
69208;SHT31;56321;47.662;8.878;2023-04-21T15:20:37;17.33;58.55
69208;SHT31;56321;47.662;8.878;2023-04-21T15:23:02;17.33;59.13
69208;SHT31;56321;47.662;8.878;2023-04-21T15:25:28;17.32;59.95
69208;SHT31;56321;47.662;8.878;2023-04-21T15:27:53;17.32;59.94
69208;SHT31;56321;47.662;8.878;2023-04-21T15:30:18;17.35;59.52
69208;SHT31;56321;47.662;8.878;2023-04-21T15:32:44;17.32;59.72
69208;SHT31;56321;47.662;8.878;2023-04-21T15:35:09;17.29;59.92
69208;SHT31;56321;47.662;8.878;2023-04-21T15:37:34;17.29;59.91
69208;SHT31;56321;47.662;8.878;2023-04-21T15:40:00;17.26;59.55